Weather at Bilbeis Air Base

Public forecast

Using degrees Celsius for public forecast. Weather courtesy of forecast.io.

Closest aviation weather report (METAR) to Bilbeis Air Base

Closest report is Cairo International Airport, 20.1 nm (37.1 km) SSW.

2024/06/22 10:00 (retrieved 33 minutes ago)

HECA 221000Z 27009KT CAVOK 36/13 Q1005

Closest aviation forecast (TAF) to Bilbeis Air Base

Closest forecast is Cairo International Airport, 20.1 nm (37.1 km) SSW.

2024/06/22 06:36 (retrieved 4 hours ago)

TAF HECA 220500Z 2206/2312 35010KT CAVOK PROB30 TEMPO 2206/2208 VRB03KT 4000 HZ